createdAt,value
2018-02-27T00:00:14.386Z,77.03
2018-02-27T00:02:46.765Z,77.23
2018-02-27T00:05:15.336Z,77.17
2018-02-27T00:07:44.608Z,77.33
2018-02-27T00:10:13.338Z,77.38
2018-02-27T00:12:41.907Z,77.42
2018-02-27T00:15:10.880Z,77.47
2018-02-27T00:17:40.396Z,77.56
2018-02-27T00:20:08.882Z,77.68
2018-02-27T00:22:40.703Z,77.73
2018-02-27T00:25:09.638Z,77.98
2018-02-27T00:27:38.283Z,78.06
2018-02-27T00:30:08.061Z,78.13
2018-02-27T00:32:41.137Z,77.96
2018-02-27T00:35:25.646Z,78.00
2018-02-27T00:37:54.143Z,78.22
2018-02-27T00:40:23.049Z,78.45
2018-02-27T00:42:55.920Z,78.50
2018-02-27T00:45:25.125Z,78.58
2018-02-27T00:47:58.656Z,78.78
2018-02-27T00:50:34.501Z,78.70
2018-02-27T00:53:05.904Z,78.78
2018-02-27T00:55:40.979Z,78.99
2018-02-27T00:58:11.026Z,78.95
2018-02-27T01:00:43.695Z,79.15
2018-02-27T01:03:15.851Z,79.16
2018-02-27T01:05:45.943Z,79.03
2018-02-27T01:08:14.546Z,79.25
2018-02-27T01:10:43.019Z,79.35
2018-02-27T01:13:17.083Z,79.35
2018-02-27T01:15:48.616Z,79.41
2018-02-27T01:18:23.961Z,79.66
2018-02-27T01:20:52.950Z,79.64
2018-02-27T01:23:23.175Z,79.78
2018-02-27T01:25:57.452Z,79.89
2018-02-27T01:28:31.591Z,79.64
2018-02-27T01:31:09.512Z,79.73
2018-02-27T01:33:42.167Z,79.87
2018-02-27T01:36:11.936Z,80.16
2018-02-27T01:38:53.778Z,80.04
2018-02-27T01:41:22.638Z,80.07
2018-02-27T01:43:58.992Z,79.93
2018-02-27T01:46:29.895Z,80.04
2018-02-27T01:51:41.072Z,80.00
2018-02-27T01:54:11.159Z,79.92
2018-02-27T01:56:40.262Z,79.86
2018-02-27T01:59:09.302Z,79.62
2018-02-27T02:01:40.240Z,79.28
2018-02-27T02:04:09.847Z,79.00
2018-02-27T02:06:38.383Z,78.92
2018-02-27T02:09:07.071Z,78.88
2018-02-27T02:11:38.214Z,78.63
2018-02-27T02:14:08.836Z,78.29
2018-02-27T02:16:42.156Z,78.04
2018-02-27T02:19:12.277Z,78.05
2018-02-27T02:21:50.674Z,78.02
2018-02-27T02:24:25.699Z,77.74
2018-02-27T02:27:04.614Z,77.48
2018-02-27T02:29:34.350Z,77.41
2018-02-27T02:32:19.314Z,77.52
2018-02-27T02:34:51.983Z,77.79
2018-02-27T02:40:09.948Z,77.37
2018-02-27T02:42:38.710Z,76.89
2018-02-27T02:45:22.574Z,76.27
2018-02-27T02:47:51.562Z,75.65
2018-02-27T02:50:20.459Z,75.92
2018-02-27T02:52:49.467Z,76.11
2018-02-27T02:55:18.097Z,75.72
2018-02-27T02:57:47.706Z,75.24
2018-02-27T03:00:21.449Z,74.82
2018-02-27T03:02:50.197Z,74.31
2018-02-27T03:05:23.858Z,74.14
2018-02-27T03:07:52.749Z,74.09
2018-02-27T03:10:29.300Z,73.75
2018-02-27T03:12:57.781Z,73.62
2018-02-27T03:15:26.503Z,73.71
2018-02-27T03:17:55.565Z,73.69
2018-02-27T03:20:24.965Z,73.57
2018-02-27T03:23:06.963Z,73.48
2018-02-27T03:25:45.340Z,73.56
2018-02-27T03:28:15.970Z,73.56
2018-02-27T03:30:57.054Z,73.36
2018-02-27T03:33:29.216Z,73.21
2018-02-27T03:36:05.533Z,72.74
2018-02-27T03:38:37.361Z,72.53
2018-02-27T03:41:33.566Z,72.27
2018-02-27T03:44:13.735Z,72.34
2018-02-27T03:49:32.640Z,72.31
2018-02-27T03:52:05.193Z,72.41
2018-02-27T03:55:02.324Z,72.38
2018-02-27T03:57:32.669Z,72.38
2018-02-27T04:00:02.915Z,72.69
2018-02-27T04:02:48.278Z,72.97
2018-02-27T04:14:28.488Z,80.53
2018-02-27T04:16:56.904Z,81.40
2018-02-27T04:19:25.347Z,81.99
2018-02-27T04:21:53.789Z,82.61
2018-02-27T04:24:22.199Z,83.07
2018-02-27T04:26:50.651Z,83.45
2018-02-27T04:29:19.138Z,83.81
2018-02-27T04:31:47.554Z,84.35
2018-02-27T04:34:15.964Z,84.13
2018-02-27T04:36:44.344Z,83.90
2018-02-27T04:39:12.729Z,84.01
2018-02-27T04:41:41.221Z,84.63
2018-02-27T04:44:09.597Z,84.62
2018-02-27T04:46:38.006Z,84.68
2018-02-27T04:49:06.447Z,84.86
2018-02-27T04:51:34.953Z,84.79
2018-02-27T04:54:03.347Z,84.31
2018-02-27T04:56:31.811Z,84.08
2018-02-27T04:59:00.178Z,84.15
2018-02-27T05:01:28.592Z,84.44
2018-02-27T05:03:56.992Z,84.44
2018-02-27T05:06:25.373Z,84.58
2018-02-27T05:08:54.547Z,84.95
2018-02-27T05:11:22.986Z,85.24
2018-02-27T05:13:51.389Z,85.37
2018-02-27T05:16:19.830Z,85.58
2018-02-27T05:18:48.225Z,85.81
2018-02-27T05:21:16.627Z,85.54
2018-02-27T05:23:45.085Z,85.75
2018-02-27T05:26:13.452Z,85.66
2018-02-27T05:28:41.844Z,85.64
2018-02-27T05:31:10.226Z,85.66
2018-02-27T05:33:38.661Z,85.48
2018-02-27T05:36:07.034Z,85.33
2018-02-27T05:38:36.187Z,85.16
2018-02-27T05:41:04.595Z,85.30
2018-02-27T05:43:33.025Z,85.48
2018-02-27T05:46:01.519Z,85.38
2018-02-27T05:48:29.898Z,85.43
2018-02-27T05:50:58.293Z,85.21
2018-02-27T05:53:26.757Z,84.95
2018-02-27T05:55:55.154Z,84.83
2018-02-27T05:58:23.605Z,84.70
2018-02-27T06:00:51.977Z,85.41
2018-02-27T06:03:20.384Z,85.61
2018-02-27T06:05:49.040Z,85.80
2018-02-27T06:08:17.461Z,85.70
2018-02-27T06:10:45.904Z,85.51
2018-02-27T06:13:14.321Z,85.31
2018-02-27T06:15:42.769Z,85.48
2018-02-27T06:18:11.184Z,85.09
2018-02-27T06:20:39.586Z,84.90
2018-02-27T06:23:07.968Z,84.78
2018-02-27T06:25:36.384Z,84.85
2018-02-27T06:28:04.786Z,84.85
2018-02-27T06:30:33.170Z,84.61
2018-02-27T06:33:01.629Z,83.95
2018-02-27T06:35:30.030Z,83.53
2018-02-27T06:37:58.424Z,82.97
2018-02-27T06:40:26.846Z,82.59
2018-02-27T06:42:55.213Z,82.66
2018-02-27T06:45:24.436Z,82.86
2018-02-27T06:47:52.937Z,83.10
2018-02-27T06:50:21.301Z,82.69
2018-02-27T06:52:49.678Z,82.51
2018-02-27T06:55:18.105Z,82.16
2018-02-27T06:57:46.473Z,81.83
2018-02-27T07:00:14.854Z,81.27
2018-02-27T07:02:43.241Z,81.43
2018-02-27T07:05:13.214Z,81.62
2018-02-27T07:07:41.638Z,81.67
2018-02-27T07:10:10.014Z,81.87
2018-02-27T07:12:39.906Z,81.75
2018-02-27T07:15:08.303Z,81.88
2018-02-27T07:17:36.712Z,82.18
2018-02-27T07:20:05.939Z,82.23
2018-02-27T07:22:34.358Z,81.86
2018-02-27T07:25:02.737Z,81.69
2018-02-27T07:27:31.143Z,81.25
2018-02-27T07:30:00.289Z,81.18
2018-02-27T07:32:28.783Z,80.31
2018-02-27T07:34:57.170Z,79.69
2018-02-27T07:37:25.601Z,82.76
2018-02-27T07:39:54.010Z,78.99
2018-02-27T07:42:22.410Z,77.91
2018-02-27T07:44:50.795Z,77.28
2018-02-27T07:47:19.236Z,75.78
2018-02-27T07:49:47.606Z,75.30
2018-02-27T07:52:16.006Z,74.29
2018-02-27T07:54:44.409Z,73.27
2018-02-27T07:57:12.798Z,71.17
2018-02-27T07:59:41.995Z,68.09
2018-02-27T08:02:11.128Z,66.79
2018-02-27T08:04:39.512Z,63.89
2018-02-27T08:07:07.909Z,62.56
2018-02-27T08:09:36.287Z,61.98
2018-02-27T08:12:04.665Z,62.28
2018-02-27T08:14:33.075Z,61.61
2018-02-27T08:17:01.439Z,61.32
2018-02-27T08:19:29.821Z,58.37
2018-02-27T08:21:58.220Z,57.05
2018-02-27T08:24:27.400Z,55.98
2018-02-27T08:29:53.027Z,54.16
2018-02-27T08:32:21.429Z,53.48
2018-02-27T08:34:50.589Z,53.44
2018-02-27T08:37:19.051Z,53.47
2018-02-27T08:39:47.443Z,52.55
2018-02-27T08:42:15.841Z,52.93
2018-02-27T08:44:44.289Z,53.22
2018-02-27T08:47:12.765Z,53.04
2018-02-27T08:49:41.196Z,53.66
2018-02-27T08:52:09.576Z,53.97
2018-02-27T08:54:38.743Z,53.87
2018-02-27T08:57:07.149Z,53.42
2018-02-27T08:59:35.528Z,52.70
2018-02-27T09:02:03.947Z,52.22
2018-02-27T09:04:32.323Z,51.34
2018-02-27T09:07:00.702Z,49.56
2018-02-27T09:09:29.100Z,49.49
2018-02-27T09:11:57.581Z,54.88
2018-02-27T09:14:25.965Z,51.38
2018-02-27T09:16:54.339Z,50.45
2018-02-27T09:19:22.809Z,49.90
2018-02-27T09:21:51.219Z,50.77
2018-02-27T09:24:19.609Z,56.21
2018-02-27T09:26:48.035Z,48.67
2018-02-27T09:29:26.988Z,55.75
2018-02-27T09:31:55.390Z,39.34
2018-02-27T09:34:23.754Z,30.66
2018-02-27T09:36:52.183Z,31.27
2018-02-27T09:39:21.397Z,28.87
2018-02-27T09:41:49.759Z,25.78
2018-02-27T09:44:18.951Z,24.87
2018-02-27T09:46:48.087Z,24.77
2018-02-27T09:49:16.749Z,24.30
2018-02-27T09:51:45.139Z,25.42
2018-02-27T09:54:13.513Z,26.89
2018-02-27T09:56:42.028Z,27.19
2018-02-27T09:59:10.405Z,26.08
2018-02-27T10:01:38.822Z,26.44
2018-02-27T10:04:07.207Z,26.92
2018-02-27T10:06:36.337Z,28.80
2018-02-27T10:09:04.811Z,30.13
2018-02-27T10:11:33.391Z,31.86
2018-02-27T10:14:01.836Z,30.63
2018-02-27T10:16:31.025Z,30.88
2018-02-27T10:18:59.413Z,29.64
2018-02-27T10:21:28.572Z,30.63
2018-02-27T10:23:57.025Z,31.42
2018-02-27T10:26:25.500Z,29.73
2018-02-27T10:28:53.870Z,27.74
2018-02-27T10:31:23.190Z,26.90
2018-02-27T10:33:51.569Z,26.91
2018-02-27T10:36:20.041Z,29.33
2018-02-27T10:38:48.407Z,30.66
2018-02-27T10:41:16.795Z,36.51
2018-02-27T10:43:45.225Z,34.65
2018-02-27T10:46:13.650Z,35.83
2018-02-27T10:48:42.022Z,38.44
2018-02-27T10:51:11.185Z,38.78
2018-02-27T10:56:37.437Z,38.37
2018-02-27T10:59:05.856Z,37.79
2018-02-27T11:01:34.225Z,39.15
2018-02-27T11:04:02.647Z,39.28
2018-02-27T11:06:31.046Z,39.09
2018-02-27T11:08:59.426Z,39.40
2018-02-27T11:11:27.830Z,38.85
2018-02-27T11:13:57.038Z,43.22
2018-02-27T11:16:25.478Z,39.59
2018-02-27T11:18:53.866Z,39.61
2018-02-27T11:21:22.276Z,39.97
2018-02-27T11:23:50.687Z,39.62
2018-02-27T11:26:19.080Z,40.36
2018-02-27T11:28:47.470Z,38.90
2018-02-27T11:31:15.886Z,38.42
2018-02-27T11:33:44.281Z,39.44
2018-02-27T11:36:12.679Z,38.54
2018-02-27T11:38:41.093Z,38.95
2018-02-27T11:41:09.470Z,39.72
2018-02-27T11:43:37.884Z,40.21
2018-02-27T11:46:06.260Z,40.62
2018-02-27T11:48:35.412Z,41.39
2018-02-27T11:51:03.808Z,39.84
2018-02-27T11:53:32.224Z,39.05
2018-02-27T11:56:00.629Z,38.47
2018-02-27T11:58:29.932Z,37.29
2018-02-27T12:00:58.333Z,35.72
2018-02-27T12:03:26.705Z,35.20
2018-02-27T12:05:55.556Z,35.11
2018-02-27T12:08:24.073Z,36.66
2018-02-27T12:10:52.452Z,37.89
2018-02-27T12:13:20.848Z,38.46
2018-02-27T12:15:49.267Z,37.46
2018-02-27T12:18:17.659Z,40.72
2018-02-27T12:20:46.053Z,40.90
2018-02-27T12:23:14.550Z,42.08
2018-02-27T12:25:42.939Z,39.96
2018-02-27T12:28:11.325Z,38.72
2018-02-27T12:30:39.709Z,38.29
2018-02-27T12:33:08.081Z,37.39
2018-02-27T12:35:36.470Z,37.12
2018-02-27T12:38:04.859Z,37.01
2018-02-27T12:40:34.048Z,37.04
2018-02-27T12:43:03.241Z,37.61
2018-02-27T12:45:31.620Z,36.51
2018-02-27T12:47:59.985Z,36.61
2018-02-27T12:50:28.460Z,36.93
2018-02-27T12:52:56.832Z,37.03
2018-02-27T12:55:25.239Z,36.29
2018-02-27T12:57:54.367Z,36.01
2018-02-27T13:00:22.730Z,37.46
2018-02-27T13:02:51.949Z,42.44
2018-02-27T13:05:20.314Z,43.19
2018-02-27T13:07:49.130Z,43.72
2018-02-27T13:10:17.514Z,44.42
2018-02-27T13:12:45.914Z,44.29
2018-02-27T13:15:14.275Z,43.61
2018-02-27T13:17:42.679Z,43.10
2018-02-27T13:20:11.069Z,43.29
2018-02-27T13:22:39.482Z,42.42
2018-02-27T13:25:07.900Z,41.70
2018-02-27T13:27:36.259Z,41.26
2018-02-27T13:30:04.618Z,41.83
2018-02-27T13:32:33.008Z,41.95
2018-02-27T13:35:01.375Z,41.87
2018-02-27T13:37:29.773Z,42.30
2018-02-27T13:40:02.262Z,43.59
2018-02-27T13:42:30.658Z,45.01
2018-02-27T13:44:59.035Z,45.49
2018-02-27T13:47:27.424Z,47.15
2018-02-27T13:49:55.785Z,46.54
2018-02-27T13:52:24.160Z,45.11
2018-02-27T13:54:52.582Z,43.88
2018-02-27T13:57:21.716Z,44.33
2018-02-27T13:59:50.117Z,44.42
2018-02-27T14:02:18.492Z,44.59
2018-02-27T14:04:46.874Z,46.25
2018-02-27T14:07:15.274Z,47.35
2018-02-27T14:09:43.666Z,44.58
2018-02-27T14:12:12.815Z,43.55
2018-02-27T14:14:41.228Z,43.46
2018-02-27T14:17:09.600Z,43.50
2018-02-27T14:19:38.025Z,43.30
2018-02-27T14:22:06.385Z,42.41
2018-02-27T14:24:34.772Z,43.04
2018-02-27T14:27:03.158Z,44.20
2018-02-27T14:29:31.534Z,43.28
2018-02-27T14:31:59.926Z,43.04
2018-02-27T14:34:28.301Z,42.26
2018-02-27T14:36:56.658Z,42.07
2018-02-27T14:39:25.044Z,43.25
2018-02-27T14:41:53.614Z,43.25
2018-02-27T14:44:22.768Z,44.82
2018-02-27T14:46:51.158Z,45.13
2018-02-27T14:49:19.587Z,46.23
2018-02-27T14:51:47.974Z,47.83
2018-02-27T14:54:16.339Z,48.24
2018-02-27T14:56:44.823Z,47.88
2018-02-27T14:59:13.221Z,47.21
2018-02-27T15:01:41.714Z,46.75
2018-02-27T15:04:10.101Z,46.79
2018-02-27T15:06:38.489Z,47.18
2018-02-27T15:09:06.896Z,47.84
2018-02-27T15:11:36.021Z,48.59
2018-02-27T15:14:04.445Z,48.00
2018-02-27T15:16:32.817Z,48.20
2018-02-27T15:19:01.270Z,48.05
2018-02-27T15:21:29.671Z,47.99
2018-02-27T15:23:58.083Z,47.51
2018-02-27T15:29:01.622Z,47.74
2018-02-27T15:31:30.040Z,47.24
2018-02-27T15:33:58.457Z,47.83
2018-02-27T15:36:27.777Z,48.35
2018-02-27T15:38:56.239Z,50.26
2018-02-27T15:41:24.650Z,51.35
2018-02-27T15:43:53.082Z,54.54
2018-02-27T15:46:21.493Z,54.67
2018-02-27T15:48:49.962Z,56.41
2018-02-27T15:51:19.270Z,57.36
2018-02-27T15:53:47.664Z,57.91
2018-02-27T15:56:16.133Z,58.30
2018-02-27T15:58:44.542Z,58.27
2018-02-27T16:01:13.002Z,58.46
2018-02-27T16:03:41.395Z,58.86
2018-02-27T16:06:09.831Z,58.73
2018-02-27T16:08:39.052Z,59.19
2018-02-27T16:11:07.475Z,59.02
2018-02-27T16:13:35.916Z,59.78
2018-02-27T16:16:04.312Z,59.19
2018-02-27T16:18:32.720Z,59.67
2018-02-27T16:21:01.228Z,59.75
2018-02-27T16:23:30.402Z,59.65
2018-02-27T16:25:58.863Z,59.78
2018-02-27T16:28:27.267Z,59.47
2018-02-27T16:30:55.705Z,59.58
2018-02-27T16:33:24.210Z,59.73
2018-02-27T16:35:52.676Z,59.70
2018-02-27T16:38:21.086Z,59.51
2018-02-27T16:40:49.514Z,59.20
2018-02-27T16:43:18.052Z,59.04
2018-02-27T16:45:46.553Z,59.27
2018-02-27T16:48:15.734Z,59.37
2018-02-27T16:50:44.168Z,59.46
2018-02-27T16:53:12.698Z,59.74
2018-02-27T16:55:41.874Z,59.72
2018-02-27T16:58:10.274Z,60.18
2018-02-27T17:00:39.466Z,60.11
2018-02-27T17:03:07.940Z,60.41
2018-02-27T17:05:36.364Z,60.30
2018-02-27T17:08:04.768Z,60.49
2018-02-27T17:10:33.197Z,60.23
2018-02-27T17:13:02.440Z,60.12
2018-02-27T17:15:31.830Z,60.32
2018-02-27T17:18:00.270Z,59.88
2018-02-27T17:20:28.702Z,59.76
2018-02-27T17:22:57.107Z,60.12
2018-02-27T17:25:25.531Z,60.51
2018-02-27T17:27:53.999Z,60.88
2018-02-27T17:30:23.181Z,61.13
2018-02-27T17:32:51.598Z,61.32
2018-02-27T17:35:20.054Z,61.40
2018-02-27T17:37:48.656Z,61.53
2018-02-27T17:40:17.070Z,61.39
2018-02-27T17:42:45.482Z,61.58
2018-02-27T17:45:13.963Z,61.82
2018-02-27T17:47:42.423Z,62.05
2018-02-27T17:50:10.895Z,62.50
2018-02-27T17:52:39.390Z,62.69
2018-02-27T17:55:07.819Z,63.00
2018-02-27T17:57:36.220Z,63.36
2018-02-27T18:00:04.713Z,63.59
2018-02-27T18:02:33.154Z,64.06
2018-02-27T18:05:01.576Z,64.35
2018-02-27T18:07:29.999Z,64.91
2018-02-27T18:09:59.254Z,65.18
2018-02-27T18:12:27.751Z,65.12
2018-02-27T18:14:56.166Z,65.25
2018-02-27T18:17:25.407Z,65.51
2018-02-27T18:19:53.831Z,66.06
2018-02-27T18:22:26.062Z,66.32
2018-02-27T18:24:54.562Z,66.52
2018-02-27T18:27:22.983Z,67.03
2018-02-27T18:29:51.432Z,67.15
2018-02-27T18:32:20.038Z,67.33
2018-02-27T18:34:48.493Z,67.54
2018-02-27T18:37:16.903Z,67.39
2018-02-27T18:39:45.438Z,66.95
2018-02-27T18:42:13.936Z,67.20
2018-02-27T18:44:42.355Z,67.38
2018-02-27T18:47:10.805Z,67.38
2018-02-27T18:49:39.967Z,67.50
2018-02-27T18:52:08.467Z,67.13
2018-02-27T18:54:36.899Z,66.86
2018-02-27T18:57:05.304Z,65.94
2018-02-27T18:59:33.732Z,65.23
2018-02-27T19:02:02.958Z,65.01
2018-02-27T19:04:31.367Z,64.06
2018-02-27T19:06:59.794Z,62.40
2018-02-27T19:09:28.265Z,61.48
2018-02-27T19:11:57.465Z,60.74
2018-02-27T19:14:26.684Z,60.00
2018-02-27T19:16:55.857Z,58.80
2018-02-27T19:19:25.049Z,57.41
2018-02-27T19:21:53.537Z,56.46
2018-02-27T19:24:22.716Z,55.96
2018-02-27T19:26:51.263Z,55.83
2018-02-27T19:29:19.658Z,55.36
2018-02-27T19:31:48.131Z,55.19
2018-02-27T19:34:16.618Z,54.80
2018-02-27T19:36:45.057Z,54.58
2018-02-27T19:39:13.905Z,55.05
2018-02-27T19:41:42.322Z,55.15
2018-02-27T19:44:10.757Z,55.09
2018-02-27T19:46:39.924Z,55.36
2018-02-27T19:49:08.339Z,55.86
2018-02-27T19:51:37.556Z,56.35
2018-02-27T19:54:06.731Z,56.68
2018-02-27T19:56:35.146Z,56.89
2018-02-27T19:59:03.566Z,57.05
2018-02-27T20:01:32.707Z,57.31
2018-02-27T20:04:01.890Z,57.70
2018-02-27T20:06:30.336Z,57.91
2018-02-27T20:08:58.743Z,58.21
2018-02-27T20:11:27.171Z,58.56
2018-02-27T20:13:55.678Z,59.19
2018-02-27T20:16:24.126Z,59.65
2018-02-27T20:18:52.539Z,59.77
2018-02-27T20:21:20.967Z,60.10
2018-02-27T20:23:55.543Z,60.35
2018-02-27T20:26:23.945Z,60.60
2018-02-27T20:31:52.318Z,61.54
2018-02-27T20:34:20.761Z,61.86
2018-02-27T20:36:49.179Z,62.16
2018-02-27T20:39:23.102Z,62.69
2018-02-27T20:41:52.303Z,64.01
2018-02-27T20:44:20.700Z,64.75
2018-02-27T20:46:49.090Z,64.46
2018-02-27T20:49:18.281Z,64.15
2018-02-27T20:51:47.447Z,64.37
2018-02-27T20:54:15.825Z,66.34
2018-02-27T20:56:44.290Z,66.78
2018-02-27T20:59:13.380Z,66.94
2018-02-27T21:01:41.780Z,67.08
2018-02-27T21:04:10.158Z,67.55
2018-02-27T21:06:38.546Z,67.87
2018-02-27T21:09:06.954Z,67.69
2018-02-27T21:11:36.089Z,67.58
2018-02-27T21:14:04.516Z,67.38
2018-02-27T21:16:33.035Z,65.98
2018-02-27T21:19:01.470Z,65.29
2018-02-27T21:21:29.886Z,65.30
2018-02-27T21:23:58.286Z,65.27
2018-02-27T21:26:26.684Z,65.53
2018-02-27T21:28:55.074Z,65.42
2018-02-27T21:31:23.476Z,64.97
2018-02-27T21:33:52.649Z,64.77
2018-02-27T21:36:21.058Z,64.37
2018-02-27T21:38:50.270Z,63.91
2018-02-27T21:41:19.410Z,63.61
2018-02-27T21:43:47.789Z,63.43
2018-02-27T21:46:16.199Z,62.99
2018-02-27T21:48:45.371Z,63.24
2018-02-27T21:51:13.815Z,63.46
2018-02-27T21:53:42.270Z,63.93
2018-02-27T21:56:11.478Z,64.32
2018-02-27T21:58:39.883Z,64.68
2018-02-27T22:01:08.313Z,64.72
2018-02-27T22:03:36.717Z,65.33
2018-02-27T22:06:05.094Z,65.48
2018-02-27T22:08:34.227Z,65.51
2018-02-27T22:11:02.708Z,65.76
2018-02-27T22:13:31.089Z,66.12
2018-02-27T22:15:59.557Z,66.38
2018-02-27T22:18:27.970Z,66.55
2018-02-27T22:20:56.343Z,66.27
2018-02-27T22:23:24.752Z,66.38
2018-02-27T22:25:53.164Z,66.21
2018-02-27T22:28:21.570Z,66.17
2018-02-27T22:30:49.954Z,66.36
2018-02-27T22:33:18.488Z,66.32
2018-02-27T22:35:47.649Z,66.59
2018-02-27T22:38:16.114Z,66.90
2018-02-27T22:40:44.793Z,67.02
2018-02-27T22:43:13.190Z,67.30
2018-02-27T22:45:41.589Z,67.53
2018-02-27T22:48:10.161Z,67.62
2018-02-27T22:50:38.547Z,67.78
2018-02-27T22:53:06.942Z,68.15
2018-02-27T22:55:36.238Z,68.32
2018-02-27T22:58:05.394Z,68.43
2018-02-27T23:00:40.351Z,68.59
2018-02-27T23:03:08.979Z,68.70
2018-02-27T23:05:37.386Z,68.62
2018-02-27T23:08:05.905Z,68.84
2018-02-27T23:10:35.245Z,69.17
2018-02-27T23:13:04.430Z,69.53
2018-02-27T23:15:33.636Z,69.65
2018-02-27T23:18:04.392Z,70.10
2018-02-27T23:20:32.992Z,70.41
2018-02-27T23:23:01.723Z,70.46
2018-02-27T23:25:33.608Z,70.79
2018-02-27T23:28:05.849Z,70.95
2018-02-27T23:30:35.124Z,71.33
2018-02-27T23:33:14.940Z,71.40
2018-02-27T23:35:43.534Z,71.51
2018-02-27T23:38:11.914Z,71.37
2018-02-27T23:40:42.142Z,71.34
2018-02-27T23:43:10.717Z,71.46
2018-02-27T23:45:39.239Z,71.34
2018-02-27T23:48:08.526Z,71.20
2018-02-27T23:50:37.685Z,71.08
2018-02-27T23:53:06.252Z,70.93
2018-02-27T23:55:34.741Z,70.95
2018-02-27T23:58:03.165Z,70.84
